Ithaca Tompkins Regional Airport Ithaca US
ICAO: KITH
IATA: ITH
Category: Medium
Scheduled Services: Yes

Elevation: 1099 ft
TransAlt. 18000 ft.

Airport Communications:
ELMIRA APP/DEP:124.3
ASOS:125.175
ATIS:125.175
CTAF:119.6
GND:121.8
BUFFALO RDO:111.8
TWR:119.6
UNICOM:122.95

KITH Zoom In..

If you have problems with the map follow the link
https://www.worldairports.se/pages/airport.php?
ICAO=KITH

Runways:

(A) RW 14 length 6977 ft width 150 ft
---- / hdg 145

(B) RW 15 length 2018 ft width 50 ft
---- / hdg 144

(C) RW 32 length 6977 ft width 150 ft
ILS 108.70 / hdg 325

(D) RW 33 length 2018 ft width 50 ft
---- / hdg 324

Location; KITH
Day. 19 / Time. 17.56 Zulu
* Altimeter: 30.30
* Temperature: -03° c. -26.6°f.
* Wind from: 320° Speed 13 kn with Gusts up to 19 kn.
Dewpoint: -06° c.
Visibility: 10 Statute Miles.
Clouds: Broken 1400 ft.
Conditions: Light Snow.

KITH 191756Z 32013G19KT 10SM -SN BKN014 M03/M06 A3030 RMK AO2 SNB23 SLP272 P0000 60000 T10281061 11011 21028 50012


Wind From 320°
Speed 13 kn.

 
 
jpsmedia worldairports.se 2020   terms of use